Badan Meteorologi, Klimatologi, dan Geofisika

CUACA TERKINI BANDARA KUALANAMU

Jumat, 5 Juni 2020 14:06 UTC

Cuaca : Berawan

Angin : (dari) Selatan, 14.8 km/jam

Jarak Pandang : 6.0 km

Suhu : 25 °C

Waktu Pengamatan : 21:00 WIB

Selengkapnya>>>

DATA METEOROLOGI KUALANAMU

Data Metar Terbaru

WIMM 051400Z 20008KT 6000 SCT017 25/25 Q1011 NOSIG=

WIMM 051330Z 18007KT 6000 TS FEW017CB SCT018 26/25 Q1010 NOSIG RMK CB TO S=

WIMM 051300Z 19008KT 6000 TS FEW017CB SCT018 26/25 Q1010 NOSIG RMK CB TO SW=

WIMM 051230Z 19009KT 6000 TS FEW017CB SCT018 26/24 Q1010 NOSIG RMK CB TO S=

WIMM 051200Z 06004KT 7000 TS FEW017CB SCT018 29/26 Q1009 NOSIG RMK CB TO S=

TAF WIMM 051100Z 0512/0612 04007KT 8000 TS FEW017CB SCT018 TEMPO 0513/0516 VRB03KT 4000 -TSRA BECMG 0603/0605 08010KT 9999 SCT018 =

Selengkapnya>>>

Data TAF Terbaru

TAF WIMM 051100Z 0512/0612 04007KT 8000 TS FEW017CB SCT018 TEMPO 0513/0516 VRB03KT 4000 -TSRA BECMG 0603/0605 08010KT 9999 SCT018 =

Selengkapnya>>>

CITRA SATELIT

Enhanced
Citra Satelit
Cloud Type
Citra Satelit IR
Hotspot
Citra Satelit
Sebaran Asap
Citra Satelit